sensor_id;sensor_type;location;lat;lon;timestamp;P1;durP1;ratioP1;P2;durP2;ratioP2
4808;SDS011;2418;49.930;8.606;2022-12-18T00:03:58;59.40;;;26.33;;
4808;SDS011;2418;49.930;8.606;2022-12-18T00:06:26;59.80;;;24.80;;
4808;SDS011;2418;49.930;8.606;2022-12-18T00:08:54;55.50;;;25.88;;
4808;SDS011;2418;49.930;8.606;2022-12-18T00:11:22;60.60;;;26.77;;
4808;SDS011;2418;49.930;8.606;2022-12-18T00:13:49;61.15;;;25.40;;
4808;SDS011;2418;49.930;8.606;2022-12-18T00:16:20;61.03;;;26.33;;
4808;SDS011;2418;49.930;8.606;2022-12-18T00:18:51;60.30;;;25.45;;
4808;SDS011;2418;49.930;8.606;2022-12-18T00:21:18;60.20;;;24.75;;
4808;SDS011;2418;49.930;8.606;2022-12-18T00:23:46;54.75;;;25.70;;
4808;SDS011;2418;49.930;8.606;2022-12-18T00:26:15;60.47;;;27.33;;
4808;SDS011;2418;49.930;8.606;2022-12-18T00:28:43;56.90;;;25.95;;
4808;SDS011;2418;49.930;8.606;2022-12-18T00:31:13;59.00;;;25.73;;
4808;SDS011;2418;49.930;8.606;2022-12-18T00:33:40;58.70;;;25.65;;
4808;SDS011;2418;49.930;8.606;2022-12-18T00:36:07;57.35;;;25.58;;
4808;SDS011;2418;49.930;8.606;2022-12-18T00:38:37;54.90;;;24.60;;
4808;SDS011;2418;49.930;8.606;2022-12-18T00:41:03;54.75;;;24.88;;
4808;SDS011;2418;49.930;8.606;2022-12-18T00:43:29;53.35;;;25.50;;
4808;SDS011;2418;49.930;8.606;2022-12-18T00:45:55;57.03;;;25.90;;
4808;SDS011;2418;49.930;8.606;2022-12-18T00:48:21;65.15;;;27.88;;
4808;SDS011;2418;49.930;8.606;2022-12-18T00:50:47;56.40;;;25.08;;
4808;SDS011;2418;49.930;8.606;2022-12-18T00:53:16;58.83;;;25.00;;
4808;SDS011;2418;49.930;8.606;2022-12-18T00:55:42;52.90;;;25.13;;
4808;SDS011;2418;49.930;8.606;2022-12-18T00:58:09;51.10;;;25.23;;
4808;SDS011;2418;49.930;8.606;2022-12-18T01:00:35;53.75;;;24.65;;
4808;SDS011;2418;49.930;8.606;2022-12-18T01:03:01;53.03;;;24.58;;
4808;SDS011;2418;49.930;8.606;2022-12-18T01:05:27;56.67;;;25.90;;
4808;SDS011;2418;49.930;8.606;2022-12-18T01:07:53;54.30;;;24.20;;
4808;SDS011;2418;49.930;8.606;2022-12-18T01:10:20;54.38;;;24.40;;
4808;SDS011;2418;49.930;8.606;2022-12-18T01:12:45;50.83;;;24.50;;
4808;SDS011;2418;49.930;8.606;2022-12-18T01:15:12;51.72;;;23.42;;
4808;SDS011;2418;49.930;8.606;2022-12-18T01:17:38;51.77;;;24.73;;
4808;SDS011;2418;49.930;8.606;2022-12-18T01:20:04;54.13;;;23.73;;
4808;SDS011;2418;49.930;8.606;2022-12-18T01:22:30;43.88;;;22.30;;
4808;SDS011;2418;49.930;8.606;2022-12-18T01:24:55;54.10;;;24.67;;
4808;SDS011;2418;49.930;8.606;2022-12-18T01:27:21;50.83;;;23.55;;
4808;SDS011;2418;49.930;8.606;2022-12-18T01:29:47;48.40;;;23.17;;
4808;SDS011;2418;49.930;8.606;2022-12-18T01:32:12;55.35;;;24.63;;
4808;SDS011;2418;49.930;8.606;2022-12-18T01:34:38;48.33;;;24.23;;
4808;SDS011;2418;49.930;8.606;2022-12-18T01:37:04;54.43;;;24.63;;
4808;SDS011;2418;49.930;8.606;2022-12-18T01:39:30;47.30;;;23.90;;
4808;SDS011;2418;49.930;8.606;2022-12-18T01:41:57;47.80;;;23.38;;
4808;SDS011;2418;49.930;8.606;2022-12-18T01:50:35;53.13;;;24.50;;
4808;SDS011;2418;49.930;8.606;2022-12-18T01:55:38;59.97;;;24.70;;
4808;SDS011;2418;49.930;8.606;2022-12-18T01:58:09;46.40;;;22.33;;
4808;SDS011;2418;49.930;8.606;2022-12-18T02:00:35;53.20;;;23.10;;
4808;SDS011;2418;49.930;8.606;2022-12-18T02:03:01;53.60;;;24.30;;
4808;SDS011;2418;49.930;8.606;2022-12-18T02:05:29;48.17;;;22.17;;
4808;SDS011;2418;49.930;8.606;2022-12-18T02:08:21;59.87;;;25.53;;
4808;SDS011;2418;49.930;8.606;2022-12-18T02:16:23;53.65;;;23.85;;
4808;SDS011;2418;49.930;8.606;2022-12-18T02:18:56;52.92;;;24.52;;
4808;SDS011;2418;49.930;8.606;2022-12-18T02:27:09;49.10;;;23.83;;
4808;SDS011;2418;49.930;8.606;2022-12-18T02:32:11;50.78;;;23.38;;
4808;SDS011;2418;49.930;8.606;2022-12-18T02:34:58;48.75;;;22.42;;
4808;SDS011;2418;49.930;8.606;2022-12-18T02:37:26;52.63;;;24.50;;
4808;SDS011;2418;49.930;8.606;2022-12-18T02:39:54;53.72;;;23.50;;
4808;SDS011;2418;49.930;8.606;2022-12-18T02:42:22;49.45;;;22.30;;
4808;SDS011;2418;49.930;8.606;2022-12-18T02:44:50;47.70;;;23.67;;
4808;SDS011;2418;49.930;8.606;2022-12-18T02:47:17;51.88;;;23.75;;
4808;SDS011;2418;49.930;8.606;2022-12-18T02:52:31;50.72;;;24.20;;
4808;SDS011;2418;49.930;8.606;2022-12-18T02:55:19;48.15;;;22.83;;
4808;SDS011;2418;49.930;8.606;2022-12-18T02:58:11;43.40;;;21.90;;
4808;SDS011;2418;49.930;8.606;2022-12-18T03:00:48;48.47;;;22.15;;
4808;SDS011;2418;49.930;8.606;2022-12-18T03:03:24;43.90;;;22.08;;
4808;SDS011;2418;49.930;8.606;2022-12-18T03:06:00;48.60;;;23.70;;
4808;SDS011;2418;49.930;8.606;2022-12-18T03:08:33;46.45;;;23.67;;
4808;SDS011;2418;49.930;8.606;2022-12-18T03:11:04;47.10;;;23.67;;
4808;SDS011;2418;49.930;8.606;2022-12-18T03:13:37;55.40;;;24.00;;
4808;SDS011;2418;49.930;8.606;2022-12-18T03:16:13;38.72;;;22.20;;
4808;SDS011;2418;49.930;8.606;2022-12-18T03:21:19;53.53;;;24.88;;
4808;SDS011;2418;49.930;8.606;2022-12-18T03:23:49;47.85;;;22.20;;
4808;SDS011;2418;49.930;8.606;2022-12-18T03:26:17;47.53;;;23.13;;
4808;SDS011;2418;49.930;8.606;2022-12-18T03:28:49;47.05;;;23.85;;
4808;SDS011;2418;49.930;8.606;2022-12-18T03:31:19;47.80;;;22.83;;
4808;SDS011;2418;49.930;8.606;2022-12-18T03:33:55;46.40;;;20.98;;
4808;SDS011;2418;49.930;8.606;2022-12-18T03:36:23;40.90;;;19.15;;
4808;SDS011;2418;49.930;8.606;2022-12-18T03:38:49;46.10;;;22.75;;
4808;SDS011;2418;49.930;8.606;2022-12-18T03:41:32;41.08;;;20.52;;
4808;SDS011;2418;49.930;8.606;2022-12-18T03:46:40;39.63;;;18.63;;
4808;SDS011;2418;49.930;8.606;2022-12-18T03:49:13;41.50;;;20.92;;
4808;SDS011;2418;49.930;8.606;2022-12-18T03:51:49;45.75;;;21.67;;
4808;SDS011;2418;49.930;8.606;2022-12-18T03:54:19;45.97;;;21.70;;
4808;SDS011;2418;49.930;8.606;2022-12-18T03:56:48;46.35;;;21.88;;
4808;SDS011;2418;49.930;8.606;2022-12-18T03:59:19;46.38;;;23.17;;
4808;SDS011;2418;49.930;8.606;2022-12-18T04:01:47;47.10;;;22.98;;
4808;SDS011;2418;49.930;8.606;2022-12-18T04:04:17;48.08;;;23.48;;
4808;SDS011;2418;49.930;8.606;2022-12-18T04:06:45;44.80;;;22.63;;
4808;SDS011;2418;49.930;8.606;2022-12-18T04:09:13;44.60;;;22.40;;
4808;SDS011;2418;49.930;8.606;2022-12-18T04:11:40;42.90;;;22.90;;
4808;SDS011;2418;49.930;8.606;2022-12-18T04:14:08;43.30;;;22.80;;
4808;SDS011;2418;49.930;8.606;2022-12-18T04:16:34;45.38;;;22.48;;
4808;SDS011;2418;49.930;8.606;2022-12-18T04:19:00;52.20;;;24.50;;
4808;SDS011;2418;49.930;8.606;2022-12-18T04:21:25;44.50;;;23.30;;
4808;SDS011;2418;49.930;8.606;2022-12-18T04:23:51;46.80;;;23.57;;
4808;SDS011;2418;49.930;8.606;2022-12-18T04:26:17;46.38;;;24.00;;
4808;SDS011;2418;49.930;8.606;2022-12-18T04:28:43;47.00;;;23.20;;
4808;SDS011;2418;49.930;8.606;2022-12-18T04:31:09;47.40;;;24.57;;
4808;SDS011;2418;49.930;8.606;2022-12-18T04:33:34;50.40;;;25.10;;
4808;SDS011;2418;49.930;8.606;2022-12-18T04:36:02;45.70;;;22.90;;
4808;SDS011;2418;49.930;8.606;2022-12-18T04:38:27;43.72;;;24.00;;
4808;SDS011;2418;49.930;8.606;2022-12-18T04:40:53;43.33;;;22.53;;
4808;SDS011;2418;49.930;8.606;2022-12-18T04:43:19;46.73;;;23.87;;
4808;SDS011;2418;49.930;8.606;2022-12-18T04:45:44;50.17;;;25.80;;
4808;SDS011;2418;49.930;8.606;2022-12-18T04:48:10;51.92;;;25.92;;
4808;SDS011;2418;49.930;8.606;2022-12-18T04:50:36;49.78;;;25.95;;
4808;SDS011;2418;49.930;8.606;2022-12-18T04:53:01;47.58;;;23.83;;
4808;SDS011;2418;49.930;8.606;2022-12-18T04:55:27;49.88;;;26.33;;
4808;SDS011;2418;49.930;8.606;2022-12-18T04:57:53;42.73;;;23.20;;
4808;SDS011;2418;49.930;8.606;2022-12-18T05:00:18;45.72;;;23.25;;
4808;SDS011;2418;49.930;8.606;2022-12-18T05:02:44;47.40;;;22.85;;
4808;SDS011;2418;49.930;8.606;2022-12-18T05:05:10;51.73;;;23.50;;
4808;SDS011;2418;49.930;8.606;2022-12-18T05:07:36;44.50;;;23.50;;
4808;SDS011;2418;49.930;8.606;2022-12-18T05:10:01;42.37;;;20.30;;
4808;SDS011;2418;49.930;8.606;2022-12-18T05:12:27;47.83;;;23.38;;
4808;SDS011;2418;49.930;8.606;2022-12-18T05:14:53;43.33;;;20.33;;
4808;SDS011;2418;49.930;8.606;2022-12-18T05:17:19;46.40;;;22.37;;
4808;SDS011;2418;49.930;8.606;2022-12-18T05:19:44;46.42;;;23.55;;
4808;SDS011;2418;49.930;8.606;2022-12-18T05:22:10;50.72;;;24.52;;
4808;SDS011;2418;49.930;8.606;2022-12-18T05:24:36;40.40;;;21.97;;
4808;SDS011;2418;49.930;8.606;2022-12-18T05:27:02;42.05;;;21.95;;
4808;SDS011;2418;49.930;8.606;2022-12-18T05:29:28;40.80;;;20.67;;
4808;SDS011;2418;49.930;8.606;2022-12-18T05:31:54;39.92;;;21.85;;
4808;SDS011;2418;49.930;8.606;2022-12-18T05:34:19;41.33;;;20.55;;
4808;SDS011;2418;49.930;8.606;2022-12-18T05:36:45;42.35;;;22.05;;
4808;SDS011;2418;49.930;8.606;2022-12-18T05:39:10;39.95;;;19.45;;
4808;SDS011;2418;49.930;8.606;2022-12-18T05:41:36;33.50;;;18.90;;
4808;SDS011;2418;49.930;8.606;2022-12-18T05:44:02;49.70;;;23.07;;
4808;SDS011;2418;49.930;8.606;2022-12-18T05:46:27;43.75;;;21.75;;
4808;SDS011;2418;49.930;8.606;2022-12-18T05:48:54;40.78;;;19.77;;
4808;SDS011;2418;49.930;8.606;2022-12-18T05:51:20;43.45;;;21.08;;
4808;SDS011;2418;49.930;8.606;2022-12-18T05:53:47;39.67;;;20.77;;
4808;SDS011;2418;49.930;8.606;2022-12-18T05:56:15;45.08;;;21.25;;
4808;SDS011;2418;49.930;8.606;2022-12-18T05:58:43;39.58;;;20.10;;
4808;SDS011;2418;49.930;8.606;2022-12-18T06:01:10;43.93;;;22.33;;
4808;SDS011;2418;49.930;8.606;2022-12-18T06:03:42;39.67;;;21.05;;
4808;SDS011;2418;49.930;8.606;2022-12-18T06:06:18;48.17;;;21.90;;
4808;SDS011;2418;49.930;8.606;2022-12-18T06:08:46;41.83;;;20.80;;
4808;SDS011;2418;49.930;8.606;2022-12-18T06:11:12;38.30;;;20.40;;
4808;SDS011;2418;49.930;8.606;2022-12-18T06:13:38;38.55;;;20.10;;
4808;SDS011;2418;49.930;8.606;2022-12-18T06:16:04;44.40;;;23.07;;
4808;SDS011;2418;49.930;8.606;2022-12-18T06:18:31;44.87;;;22.90;;
4808;SDS011;2418;49.930;8.606;2022-12-18T06:20:57;40.58;;;22.15;;
4808;SDS011;2418;49.930;8.606;2022-12-18T06:23:24;40.38;;;22.40;;
4808;SDS011;2418;49.930;8.606;2022-12-18T06:25:50;42.88;;;21.67;;
4808;SDS011;2418;49.930;8.606;2022-12-18T06:28:16;46.35;;;22.42;;
4808;SDS011;2418;49.930;8.606;2022-12-18T06:30:45;43.80;;;21.93;;
4808;SDS011;2418;49.930;8.606;2022-12-18T06:33:12;37.83;;;21.17;;
4808;SDS011;2418;49.930;8.606;2022-12-18T06:35:39;40.20;;;20.38;;
4808;SDS011;2418;49.930;8.606;2022-12-18T06:38:05;43.15;;;21.33;;
4808;SDS011;2418;49.930;8.606;2022-12-18T06:40:30;40.80;;;21.60;;
4808;SDS011;2418;49.930;8.606;2022-12-18T06:42:56;42.77;;;20.60;;
4808;SDS011;2418;49.930;8.606;2022-12-18T06:45:22;44.03;;;22.75;;
4808;SDS011;2418;49.930;8.606;2022-12-18T06:47:49;39.05;;;20.42;;
4808;SDS011;2418;49.930;8.606;2022-12-18T06:50:14;48.33;;;22.87;;
4808;SDS011;2418;49.930;8.606;2022-12-18T06:52:40;44.37;;;22.60;;
4808;SDS011;2418;49.930;8.606;2022-12-18T06:55:07;45.67;;;23.25;;
4808;SDS011;2418;49.930;8.606;2022-12-18T06:57:33;44.27;;;22.60;;
4808;SDS011;2418;49.930;8.606;2022-12-18T06:59:59;48.25;;;23.70;;
4808;SDS011;2418;49.930;8.606;2022-12-18T07:02:25;43.53;;;23.08;;
4808;SDS011;2418;49.930;8.606;2022-12-18T07:04:51;46.40;;;22.17;;
4808;SDS011;2418;49.930;8.606;2022-12-18T07:07:16;49.00;;;23.53;;
4808;SDS011;2418;49.930;8.606;2022-12-18T07:09:42;42.60;;;21.87;;
4808;SDS011;2418;49.930;8.606;2022-12-18T07:12:08;38.97;;;21.30;;
4808;SDS011;2418;49.930;8.606;2022-12-18T07:14:34;45.20;;;23.65;;
4808;SDS011;2418;49.930;8.606;2022-12-18T07:17:00;46.13;;;22.77;;
4808;SDS011;2418;49.930;8.606;2022-12-18T07:19:25;48.30;;;24.00;;
4808;SDS011;2418;49.930;8.606;2022-12-18T07:21:51;47.28;;;24.25;;
4808;SDS011;2418;49.930;8.606;2022-12-18T07:24:21;50.45;;;26.05;;
4808;SDS011;2418;49.930;8.606;2022-12-18T07:26:50;50.25;;;26.67;;
4808;SDS011;2418;49.930;8.606;2022-12-18T07:29:16;50.28;;;27.38;;
4808;SDS011;2418;49.930;8.606;2022-12-18T07:31:42;55.45;;;29.88;;
4808;SDS011;2418;49.930;8.606;2022-12-18T07:34:12;58.40;;;30.40;;
4808;SDS011;2418;49.930;8.606;2022-12-18T07:36:38;61.25;;;31.95;;
4808;SDS011;2418;49.930;8.606;2022-12-18T07:39:04;56.40;;;30.40;;
4808;SDS011;2418;49.930;8.606;2022-12-18T07:41:30;54.58;;;26.50;;
4808;SDS011;2418;49.930;8.606;2022-12-18T07:43:56;57.60;;;26.95;;
4808;SDS011;2418;49.930;8.606;2022-12-18T07:46:22;58.92;;;29.67;;
4808;SDS011;2418;49.930;8.606;2022-12-18T07:48:48;56.17;;;28.90;;
4808;SDS011;2418;49.930;8.606;2022-12-18T07:51:17;54.10;;;27.58;;
4808;SDS011;2418;49.930;8.606;2022-12-18T07:53:43;57.03;;;29.88;;
4808;SDS011;2418;49.930;8.606;2022-12-18T07:56:10;56.33;;;28.02;;
4808;SDS011;2418;49.930;8.606;2022-12-18T07:58:37;58.83;;;28.43;;
4808;SDS011;2418;49.930;8.606;2022-12-18T08:01:07;55.95;;;27.35;;
4808;SDS011;2418;49.930;8.606;2022-12-18T08:03:34;56.78;;;28.42;;
4808;SDS011;2418;49.930;8.606;2022-12-18T08:06:01;60.40;;;29.88;;
4808;SDS011;2418;49.930;8.606;2022-12-18T08:08:28;57.33;;;28.42;;
4808;SDS011;2418;49.930;8.606;2022-12-18T08:10:54;62.10;;;28.80;;
4808;SDS011;2418;49.930;8.606;2022-12-18T08:13:20;54.03;;;28.38;;
4808;SDS011;2418;49.930;8.606;2022-12-18T08:15:45;51.65;;;25.42;;
4808;SDS011;2418;49.930;8.606;2022-12-18T08:18:11;56.20;;;26.42;;
4808;SDS011;2418;49.930;8.606;2022-12-18T08:20:37;55.57;;;27.90;;
4808;SDS011;2418;49.930;8.606;2022-12-18T08:23:02;46.25;;;25.92;;
4808;SDS011;2418;49.930;8.606;2022-12-18T08:25:28;50.92;;;25.30;;
4808;SDS011;2418;49.930;8.606;2022-12-18T08:27:54;55.13;;;25.42;;
4808;SDS011;2418;49.930;8.606;2022-12-18T08:30:21;51.60;;;26.15;;
4808;SDS011;2418;49.930;8.606;2022-12-18T08:32:47;52.28;;;25.92;;
4808;SDS011;2418;49.930;8.606;2022-12-18T08:35:17;45.03;;;24.50;;
4808;SDS011;2418;49.930;8.606;2022-12-18T08:37:43;53.23;;;25.37;;
4808;SDS011;2418;49.930;8.606;2022-12-18T08:40:09;45.97;;;24.63;;
4808;SDS011;2418;49.930;8.606;2022-12-18T08:42:35;51.67;;;25.83;;
4808;SDS011;2418;49.930;8.606;2022-12-18T08:45:19;48.67;;;25.90;;
4808;SDS011;2418;49.930;8.606;2022-12-18T08:47:45;54.37;;;26.60;;
4808;SDS011;2418;49.930;8.606;2022-12-18T08:50:11;56.73;;;28.70;;
4808;SDS011;2418;49.930;8.606;2022-12-18T08:52:37;58.03;;;29.80;;
4808;SDS011;2418;49.930;8.606;2022-12-18T08:55:02;57.30;;;31.67;;
4808;SDS011;2418;49.930;8.606;2022-12-18T08:57:29;70.97;;;34.95;;
4808;SDS011;2418;49.930;8.606;2022-12-18T08:59:54;66.70;;;34.13;;
4808;SDS011;2418;49.930;8.606;2022-12-18T09:02:20;54.97;;;27.90;;
4808;SDS011;2418;49.930;8.606;2022-12-18T09:04:49;51.30;;;25.92;;
4808;SDS011;2418;49.930;8.606;2022-12-18T09:07:14;46.88;;;25.92;;
4808;SDS011;2418;49.930;8.606;2022-12-18T09:09:40;49.33;;;26.10;;
4808;SDS011;2418;49.930;8.606;2022-12-18T09:12:06;48.50;;;25.60;;
4808;SDS011;2418;49.930;8.606;2022-12-18T09:14:31;51.27;;;26.43;;
4808;SDS011;2418;49.930;8.606;2022-12-18T09:16:57;51.63;;;26.73;;
4808;SDS011;2418;49.930;8.606;2022-12-18T09:19:22;60.25;;;28.00;;
4808;SDS011;2418;49.930;8.606;2022-12-18T09:21:48;55.55;;;28.77;;
4808;SDS011;2418;49.930;8.606;2022-12-18T09:24:14;50.20;;;26.53;;
4808;SDS011;2418;49.930;8.606;2022-12-18T09:26:40;53.08;;;29.02;;
4808;SDS011;2418;49.930;8.606;2022-12-18T09:29:06;58.63;;;28.00;;
4808;SDS011;2418;49.930;8.606;2022-12-18T09:31:32;54.97;;;28.63;;
4808;SDS011;2418;49.930;8.606;2022-12-18T09:33:58;54.78;;;28.63;;
4808;SDS011;2418;49.930;8.606;2022-12-18T09:36:24;52.42;;;28.08;;
4808;SDS011;2418;49.930;8.606;2022-12-18T09:38:50;53.27;;;28.03;;
4808;SDS011;2418;49.930;8.606;2022-12-18T09:43:50;54.90;;;27.98;;
4808;SDS011;2418;49.930;8.606;2022-12-18T09:46:19;57.08;;;29.52;;
4808;SDS011;2418;49.930;8.606;2022-12-18T09:48:51;58.55;;;32.33;;
4808;SDS011;2418;49.930;8.606;2022-12-18T09:51:20;60.90;;;30.63;;
4808;SDS011;2418;49.930;8.606;2022-12-18T09:53:59;56.30;;;30.13;;
4808;SDS011;2418;49.930;8.606;2022-12-18T09:56:46;61.45;;;32.72;;
4808;SDS011;2418;49.930;8.606;2022-12-18T10:02:25;63.38;;;32.55;;
4808;SDS011;2418;49.930;8.606;2022-12-18T10:04:57;65.43;;;32.53;;
4808;SDS011;2418;49.930;8.606;2022-12-18T10:07:40;53.63;;;30.52;;
4808;SDS011;2418;49.930;8.606;2022-12-18T10:16:06;68.15;;;34.60;;
4808;SDS011;2418;49.930;8.606;2022-12-18T10:21:39;65.97;;;35.00;;
4808;SDS011;2418;49.930;8.606;2022-12-18T10:26:41;59.47;;;32.10;;
4808;SDS011;2418;49.930;8.606;2022-12-18T10:29:12;64.33;;;33.60;;
4808;SDS011;2418;49.930;8.606;2022-12-18T10:31:39;61.92;;;32.00;;
4808;SDS011;2418;49.930;8.606;2022-12-18T10:34:09;66.43;;;34.13;;
4808;SDS011;2418;49.930;8.606;2022-12-18T10:36:36;69.78;;;34.50;;
4808;SDS011;2418;49.930;8.606;2022-12-18T10:39:19;64.18;;;32.97;;
4808;SDS011;2418;49.930;8.606;2022-12-18T10:41:47;60.85;;;32.10;;
4808;SDS011;2418;49.930;8.606;2022-12-18T10:44:17;63.45;;;33.10;;
4808;SDS011;2418;49.930;8.606;2022-12-18T10:46:51;62.40;;;31.60;;
4808;SDS011;2418;49.930;8.606;2022-12-18T10:49:26;59.13;;;31.17;;
4808;SDS011;2418;49.930;8.606;2022-12-18T10:54:39;61.55;;;30.08;;
4808;SDS011;2418;49.930;8.606;2022-12-18T10:57:14;60.80;;;31.35;;
4808;SDS011;2418;49.930;8.606;2022-12-18T10:59:51;60.50;;;30.40;;
4808;SDS011;2418;49.930;8.606;2022-12-18T11:05:01;54.65;;;29.20;;
4808;SDS011;2418;49.930;8.606;2022-12-18T11:07:46;60.20;;;29.92;;
4808;SDS011;2418;49.930;8.606;2022-12-18T11:10:18;58.40;;;29.55;;
4808;SDS011;2418;49.930;8.606;2022-12-18T11:12:44;65.50;;;32.33;;
4808;SDS011;2418;49.930;8.606;2022-12-18T11:15:21;58.90;;;29.60;;
4808;SDS011;2418;49.930;8.606;2022-12-18T11:17:52;60.75;;;30.52;;
4808;SDS011;2418;49.930;8.606;2022-12-18T11:20:34;52.08;;;28.23;;
4808;SDS011;2418;49.930;8.606;2022-12-18T11:23:01;57.30;;;29.30;;
4808;SDS011;2418;49.930;8.606;2022-12-18T11:25:30;58.10;;;29.25;;
4808;SDS011;2418;49.930;8.606;2022-12-18T11:27:59;53.90;;;27.25;;
4808;SDS011;2418;49.930;8.606;2022-12-18T11:30:28;56.70;;;27.92;;
4808;SDS011;2418;49.930;8.606;2022-12-18T11:33:10;55.85;;;27.98;;
4808;SDS011;2418;49.930;8.606;2022-12-18T11:35:49;51.70;;;26.83;;
4808;SDS011;2418;49.930;8.606;2022-12-18T11:38:21;57.65;;;27.67;;
4808;SDS011;2418;49.930;8.606;2022-12-18T11:40:59;58.78;;;28.90;;
4808;SDS011;2418;49.930;8.606;2022-12-18T11:43:38;60.05;;;28.98;;
4808;SDS011;2418;49.930;8.606;2022-12-18T11:46:32;53.07;;;28.20;;
4808;SDS011;2418;49.930;8.606;2022-12-18T11:51:41;56.03;;;28.38;;
4808;SDS011;2418;49.930;8.606;2022-12-18T11:54:17;58.00;;;28.10;;
4808;SDS011;2418;49.930;8.606;2022-12-18T11:56:53;52.22;;;26.80;;
4808;SDS011;2418;49.930;8.606;2022-12-18T11:59:30;54.83;;;27.17;;
4808;SDS011;2418;49.930;8.606;2022-12-18T12:11:35;59.35;;;28.10;;
4808;SDS011;2418;49.930;8.606;2022-12-18T12:22:03;53.63;;;27.90;;
4808;SDS011;2418;49.930;8.606;2022-12-18T12:27:39;63.65;;;28.98;;
4808;SDS011;2418;49.930;8.606;2022-12-18T12:39:06;55.78;;;27.30;;
4808;SDS011;2418;49.930;8.606;2022-12-18T12:41:37;53.75;;;25.67;;
4808;SDS011;2418;49.930;8.606;2022-12-18T12:44:29;60.47;;;28.55;;
4808;SDS011;2418;49.930;8.606;2022-12-18T12:47:00;62.95;;;28.38;;
4808;SDS011;2418;49.930;8.606;2022-12-18T12:49:31;60.70;;;27.90;;
4808;SDS011;2418;49.930;8.606;2022-12-18T12:51:59;54.22;;;27.80;;
4808;SDS011;2418;49.930;8.606;2022-12-18T12:55:04;63.15;;;28.70;;
4808;SDS011;2418;49.930;8.606;2022-12-18T12:57:38;63.38;;;30.90;;
4808;SDS011;2418;49.930;8.606;2022-12-18T13:00:09;59.78;;;28.55;;
4808;SDS011;2418;49.930;8.606;2022-12-18T13:02:55;65.03;;;29.30;;
4808;SDS011;2418;49.930;8.606;2022-12-18T13:08:24;58.70;;;28.90;;
4808;SDS011;2418;49.930;8.606;2022-12-18T13:10:52;71.27;;;33.43;;
4808;SDS011;2418;49.930;8.606;2022-12-18T13:13:49;73.50;;;35.17;;
4808;SDS011;2418;49.930;8.606;2022-12-18T13:16:18;62.65;;;30.50;;
4808;SDS011;2418;49.930;8.606;2022-12-18T13:18:54;62.10;;;29.48;;
4808;SDS011;2418;49.930;8.606;2022-12-18T13:23:52;56.17;;;27.25;;
4808;SDS011;2418;49.930;8.606;2022-12-18T13:34:24;62.47;;;28.10;;
4808;SDS011;2418;49.930;8.606;2022-12-18T13:36:52;60.65;;;30.35;;
4808;SDS011;2418;49.930;8.606;2022-12-18T13:41:48;68.00;;;32.83;;
4808;SDS011;2418;49.930;8.606;2022-12-18T13:46:58;67.32;;;29.42;;
4808;SDS011;2418;49.930;8.606;2022-12-18T13:52:39;65.40;;;30.60;;
4808;SDS011;2418;49.930;8.606;2022-12-18T13:54:59;56.25;;;27.90;;
4808;SDS011;2418;49.930;8.606;2022-12-18T13:57:36;55.85;;;27.65;;
4808;SDS011;2418;49.930;8.606;2022-12-18T14:02:47;64.85;;;29.70;;
4808;SDS011;2418;49.930;8.606;2022-12-18T14:05:21;55.37;;;27.00;;
4808;SDS011;2418;49.930;8.606;2022-12-18T14:07:50;55.92;;;27.23;;
4808;SDS011;2418;49.930;8.606;2022-12-18T14:10:16;61.78;;;29.40;;
4808;SDS011;2418;49.930;8.606;2022-12-18T14:12:45;72.35;;;31.40;;
4808;SDS011;2418;49.930;8.606;2022-12-18T14:17:52;60.03;;;28.65;;
4808;SDS011;2418;49.930;8.606;2022-12-18T14:20:27;52.27;;;26.70;;
4808;SDS011;2418;49.930;8.606;2022-12-18T14:22:56;52.50;;;26.08;;
4808;SDS011;2418;49.930;8.606;2022-12-18T14:25:23;57.87;;;26.90;;
4808;SDS011;2418;49.930;8.606;2022-12-18T14:27:52;51.55;;;26.38;;
4808;SDS011;2418;49.930;8.606;2022-12-18T14:30:27;50.08;;;25.27;;
4808;SDS011;2418;49.930;8.606;2022-12-18T14:33:04;55.05;;;25.23;;
4808;SDS011;2418;49.930;8.606;2022-12-18T14:35:33;57.33;;;26.40;;
4808;SDS011;2418;49.930;8.606;2022-12-18T14:38:19;53.75;;;25.60;;
4808;SDS011;2418;49.930;8.606;2022-12-18T14:40:46;58.20;;;28.23;;
4808;SDS011;2418;49.930;8.606;2022-12-18T14:43:12;59.50;;;27.17;;
4808;SDS011;2418;49.930;8.606;2022-12-18T14:45:41;54.30;;;26.00;;
4808;SDS011;2418;49.930;8.606;2022-12-18T14:48:14;55.15;;;25.33;;
4808;SDS011;2418;49.930;8.606;2022-12-18T14:51:01;57.28;;;27.92;;
4808;SDS011;2418;49.930;8.606;2022-12-18T14:56:28;54.38;;;26.73;;
4808;SDS011;2418;49.930;8.606;2022-12-18T14:59:20;58.05;;;28.23;;
4808;SDS011;2418;49.930;8.606;2022-12-18T15:01:48;61.10;;;28.13;;
4808;SDS011;2418;49.930;8.606;2022-12-18T15:04:30;52.17;;;25.90;;
4808;SDS011;2418;49.930;8.606;2022-12-18T15:07:04;55.22;;;26.55;;
4808;SDS011;2418;49.930;8.606;2022-12-18T15:09:30;61.05;;;26.85;;
4808;SDS011;2418;49.930;8.606;2022-12-18T15:11:56;61.08;;;27.77;;
4808;SDS011;2418;49.930;8.606;2022-12-18T15:14:30;61.30;;;28.73;;
4808;SDS011;2418;49.930;8.606;2022-12-18T15:17:06;66.80;;;29.50;;
4808;SDS011;2418;49.930;8.606;2022-12-18T15:19:42;51.88;;;25.63;;
4808;SDS011;2418;49.930;8.606;2022-12-18T15:22:17;60.35;;;27.98;;
4808;SDS011;2418;49.930;8.606;2022-12-18T15:24:45;65.47;;;28.50;;
4808;SDS011;2418;49.930;8.606;2022-12-18T15:32:40;57.13;;;27.77;;
4808;SDS011;2418;49.930;8.606;2022-12-18T15:37:40;59.28;;;27.45;;
4808;SDS011;2418;49.930;8.606;2022-12-18T15:40:07;54.70;;;27.80;;
4808;SDS011;2418;49.930;8.606;2022-12-18T15:42:37;56.97;;;26.20;;
4808;SDS011;2418;49.930;8.606;2022-12-18T15:45:21;56.90;;;26.53;;
4808;SDS011;2418;49.930;8.606;2022-12-18T15:47:47;57.87;;;27.47;;
4808;SDS011;2418;49.930;8.606;2022-12-18T15:50:12;54.25;;;26.88;;
4808;SDS011;2418;49.930;8.606;2022-12-18T15:52:44;54.72;;;27.15;;
4808;SDS011;2418;49.930;8.606;2022-12-18T15:55:17;61.67;;;28.30;;
4808;SDS011;2418;49.930;8.606;2022-12-18T15:58:03;51.58;;;26.13;;
4808;SDS011;2418;49.930;8.606;2022-12-18T16:00:31;54.55;;;27.88;;
4808;SDS011;2418;49.930;8.606;2022-12-18T16:02:58;56.03;;;27.43;;
4808;SDS011;2418;49.930;8.606;2022-12-18T16:05:24;54.83;;;27.30;;
4808;SDS011;2418;49.930;8.606;2022-12-18T16:07:52;56.75;;;27.88;;
4808;SDS011;2418;49.930;8.606;2022-12-18T16:10:18;54.17;;;27.30;;
4808;SDS011;2418;49.930;8.606;2022-12-18T16:12:44;62.33;;;27.42;;
4808;SDS011;2418;49.930;8.606;2022-12-18T16:15:12;58.45;;;27.38;;
4808;SDS011;2418;49.930;8.606;2022-12-18T16:17:39;59.25;;;27.23;;
4808;SDS011;2418;49.930;8.606;2022-12-18T16:20:06;60.80;;;28.50;;
4808;SDS011;2418;49.930;8.606;2022-12-18T16:22:40;65.35;;;31.85;;
4808;SDS011;2418;49.930;8.606;2022-12-18T16:25:09;63.95;;;30.73;;
4808;SDS011;2418;49.930;8.606;2022-12-18T16:27:44;60.30;;;28.90;;
4808;SDS011;2418;49.930;8.606;2022-12-18T16:30:17;61.88;;;28.15;;
4808;SDS011;2418;49.930;8.606;2022-12-18T16:32:45;62.20;;;28.60;;
4808;SDS011;2418;49.930;8.606;2022-12-18T16:35:11;58.47;;;26.83;;
4808;SDS011;2418;49.930;8.606;2022-12-18T16:37:38;58.53;;;27.05;;
4808;SDS011;2418;49.930;8.606;2022-12-18T16:40:05;58.13;;;27.20;;
4808;SDS011;2418;49.930;8.606;2022-12-18T16:42:34;56.15;;;27.23;;
4808;SDS011;2418;49.930;8.606;2022-12-18T16:45:00;57.67;;;28.00;;
4808;SDS011;2418;49.930;8.606;2022-12-18T16:47:26;51.60;;;25.50;;
4808;SDS011;2418;49.930;8.606;2022-12-18T16:49:51;55.40;;;27.10;;
4808;SDS011;2418;49.930;8.606;2022-12-18T16:52:17;51.55;;;26.20;;
4808;SDS011;2418;49.930;8.606;2022-12-18T16:54:43;53.97;;;26.27;;
4808;SDS011;2418;49.930;8.606;2022-12-18T16:57:10;56.37;;;25.83;;
4808;SDS011;2418;49.930;8.606;2022-12-18T16:59:38;54.42;;;26.75;;
4808;SDS011;2418;49.930;8.606;2022-12-18T17:02:04;61.25;;;29.10;;
4808;SDS011;2418;49.930;8.606;2022-12-18T17:04:30;57.58;;;27.88;;
4808;SDS011;2418;49.930;8.606;2022-12-18T17:06:56;73.13;;;34.23;;